Time;durP1;ratioP1;P1;durP2;ratioP2;P2;SDS_P1;SDS_P2;PMS_P1;PMS_P2;Temp;Humidity;BMP_temperature;BMP_pressure;BME280_temperature;BME280_humidity;BME280_pressure;Samples;Min_cycle;Max_cycle;Signal;HPM_P1;HPM_P2
2023/03/14 00:00:29;;;;;;;;;0.00;0.00;;;;;;;;5091906;28;8795;-72
2023/03/14 00:02:55;;;;;;;;;0.25;0.25;;;;;;;;5092002;28;8791;-71
2023/03/14 00:05:20;;;;;;;;;4.00;0.00;;;;;;;;5091266;28;8815;-71
2023/03/14 00:07:45;;;;;;;;;0.00;0.00;;;;;;;;5092051;28;8807;-72
2023/03/14 00:10:13;;;;;;;;;1.00;0.00;;;;;;;;5091877;28;8795;-72
2023/03/14 00:12:38;;;;;;;;;0.00;0.00;;;;;;;;5091779;28;8880;-72
2023/03/14 00:15:04;;;;;;;;;1.00;0.67;;;;;;;;5091953;28;9472;-72
2023/03/14 00:17:30;;;;;;;;;1.00;1.00;;;;;;;;5091707;28;8787;-72
2023/03/14 00:19:55;;;;;;;;;0.00;0.00;;;;;;;;5091888;28;8788;-72
2023/03/14 00:22:21;;;;;;;;;0.00;0.00;;;;;;;;5095006;28;9491;-71
2023/03/14 00:24:46;;;;;;;;;1.00;0.00;;;;;;;;5112264;27;8820;-72
2023/03/14 00:27:12;;;;;;;;;3.00;0.00;;;;;;;;5111724;27;8875;-72
2023/03/14 00:29:37;;;;;;;;;0.00;0.00;;;;;;;;5111722;27;8891;-72
2023/03/14 00:32:02;;;;;;;;;0.00;0.00;;;;;;;;5111404;28;8789;-72
2023/03/14 00:34:31;;;;;;;;;0.00;0.00;;;;;;;;5111818;27;8789;-72
2023/03/14 00:36:56;;;;;;;;;0.00;0.00;;;;;;;;5110259;28;8935;-72
2023/03/14 00:39:22;;;;;;;;;0.00;0.00;;;;;;;;5111973;27;9654;-72
2023/03/14 00:41:47;;;;;;;;;0.00;0.00;;;;;;;;5111627;27;9626;-71
2023/03/14 00:44:12;;;;;;;;;0.00;0.00;;;;;;;;5111447;28;9518;-72
2023/03/14 00:46:37;;;;;;;;;0.33;0.33;;;;;;;;5111428;28;8970;-72
2023/03/14 00:49:03;;;;;;;;;2.00;0.33;;;;;;;;5111457;28;8832;-72
2023/03/14 00:51:28;;;;;;;;;0.00;0.00;;;;;;;;5110384;28;9560;-72
2023/03/14 00:53:53;;;;;;;;;1.00;0.00;;;;;;;;5111626;28;8799;-72
2023/03/14 00:56:18;;;;;;;;;1.00;0.00;;;;;;;;5111224;28;8805;-72
2023/03/14 00:58:43;;;;;;;;;0.00;0.00;;;;;;;;5111619;28;8785;-72
2023/03/14 01:01:10;;;;;;;;;1.50;0.00;;;;;;;;5111565;28;8941;-72
2023/03/14 01:12:44;;;;;;;;;1.00;0.00;;;;;;;;5111052;28;9394;-71
2023/03/14 01:15:09;;;;;;;;;2.50;0.25;;;;;;;;5111368;28;10294;-72
2023/03/14 01:17:35;;;;;;;;;0.00;0.00;;;;;;;;5111297;28;8800;-71
2023/03/14 01:20:00;;;;;;;;;0.00;0.00;;;;;;;;5111585;28;8801;-72
2023/03/14 01:22:26;;;;;;;;;0.00;0.00;;;;;;;;5111372;27;8795;-72
2023/03/14 01:24:51;;;;;;;;;0.00;0.00;;;;;;;;5111199;28;9562;-72
2023/03/14 01:27:16;;;;;;;;;1.50;0.00;;;;;;;;5111186;28;8989;-72
2023/03/14 01:29:41;;;;;;;;;1.00;0.00;;;;;;;;5111209;28;8819;-71
2023/03/14 01:32:07;;;;;;;;;0.00;0.00;;;;;;;;5109953;28;8801;-72
2023/03/14 01:34:32;;;;;;;;;1.00;0.00;;;;;;;;5111136;28;9617;-72
2023/03/14 01:36:57;;;;;;;;;1.00;1.00;;;;;;;;5111012;28;8831;-72
2023/03/14 01:39:22;;;;;;;;;0.00;0.00;;;;;;;;5109540;28;8816;-72
2023/03/14 01:41:47;;;;;;;;;1.33;0.67;;;;;;;;5111025;27;8907;-71
2023/03/14 01:44:13;;;;;;;;;1.00;0.00;;;;;;;;5111084;28;8897;-72
2023/03/14 01:46:42;;;;;;;;;1.00;0.00;;;;;;;;5113218;28;8793;-72
2023/03/14 01:49:19;;;;;;;;;0.00;0.00;;;;;;;;5114229;27;8888;-72
2023/03/14 01:51:50;;;;;;;;;0.50;0.00;;;;;;;;5114249;28;9471;-72
2023/03/14 01:54:18;;;;;;;;;0.33;0.00;;;;;;;;5114280;28;9532;-72
2023/03/14 01:56:45;;;;;;;;;0.50;0.00;;;;;;;;5114275;27;10147;-72
2023/03/14 01:59:11;;;;;;;;;0.00;0.00;;;;;;;;5114346;27;9636;-72
2023/03/14 02:01:36;;;;;;;;;1.00;0.00;;;;;;;;5114463;27;9548;-72
2023/03/14 02:04:05;;;;;;;;;0.00;0.00;;;;;;;;5114468;27;8789;-72
2023/03/14 02:06:47;;;;;;;;;0.00;0.00;;;;;;;;5112769;28;8788;-72
2023/03/14 02:09:12;;;;;;;;;3.75;0.00;;;;;;;;5113900;27;9847;-72
2023/03/14 02:11:38;;;;;;;;;0.00;0.00;;;;;;;;5114048;28;9486;-72
2023/03/14 02:14:03;;;;;;;;;0.00;0.00;;;;;;;;5114414;27;8796;-72
2023/03/14 02:16:29;;;;;;;;;1.00;0.00;;;;;;;;5114180;27;8833;-72
2023/03/14 02:18:55;;;;;;;;;1.00;0.00;;;;;;;;5113731;27;8785;-72
2023/03/14 02:21:23;;;;;;;;;0.00;0.00;;;;;;;;5113989;28;9818;-71
2023/03/14 02:24:07;;;;;;;;;0.00;0.00;;;;;;;;5113893;27;8777;-72
2023/03/14 02:26:52;;;;;;;;;0.00;0.00;;;;;;;;5113925;28;9552;-72
2023/03/14 02:29:18;;;;;;;;;0.33;0.00;;;;;;;;5099438;28;9516;-73
2023/03/14 02:31:43;;;;;;;;;1.75;0.75;;;;;;;;5113797;27;9470;-72
2023/03/14 02:34:08;;;;;;;;;1.00;0.00;;;;;;;;5114379;28;8773;-72
2023/03/14 02:36:34;;;;;;;;;0.00;0.00;;;;;;;;5113903;28;8788;-72
2023/03/14 02:39:13;;;;;;;;;0.00;0.00;;;;;;;;5113643;27;8911;-72
2023/03/14 02:41:39;;;;;;;;;0.00;0.00;;;;;;;;5113885;27;8873;-71
2023/03/14 02:44:04;;;;;;;;;0.00;0.00;;;;;;;;5113645;28;9463;-72
2023/03/14 02:46:29;;;;;;;;;0.00;0.00;;;;;;;;5113377;28;8956;-72
2023/03/14 02:49:01;;;;;;;;;0.00;0.00;;;;;;;;5113896;28;8827;-72
2023/03/14 02:51:27;;;;;;;;;0.00;0.00;;;;;;;;5113462;27;8777;-72
2023/03/14 02:53:52;;;;;;;;;0.00;0.00;;;;;;;;5113626;27;9460;-71
2023/03/14 02:56:17;;;;;;;;;0.00;0.00;;;;;;;;5113763;28;8885;-72
2023/03/14 02:58:42;;;;;;;;;0.75;0.00;;;;;;;;5113438;28;8793;-71
2023/03/14 03:01:08;;;;;;;;;0.00;0.00;;;;;;;;5113882;28;8807;-72
2023/03/14 03:03:33;;;;;;;;;0.00;0.00;;;;;;;;5113714;28;8900;-72
2023/03/14 03:05:58;;;;;;;;;0.00;0.00;;;;;;;;5113424;28;8811;-71
2023/03/14 03:08:25;;;;;;;;;0.00;0.00;;;;;;;;5113205;27;8809;-71
2023/03/14 03:10:51;;;;;;;;;0.00;0.00;;;;;;;;5113375;27;8765;-72
2023/03/14 03:13:16;;;;;;;;;0.00;0.00;;;;;;;;5113250;27;9624;-72
2023/03/14 03:15:41;;;;;;;;;0.00;0.00;;;;;;;;5113295;27;8793;-72
2023/03/14 03:18:07;;;;;;;;;0.00;0.00;;;;;;;;5113071;28;8797;-73
2023/03/14 03:20:32;;;;;;;;;0.00;0.00;;;;;;;;5111654;28;8843;-72
2023/03/14 03:22:58;;;;;;;;;0.00;0.00;;;;;;;;5113100;28;8883;-72
2023/03/14 03:25:23;;;;;;;;;0.67;0.00;;;;;;;;5111587;28;8808;-72
2023/03/14 03:27:48;;;;;;;;;0.00;0.00;;;;;;;;5112758;28;11442;-73
2023/03/14 03:30:14;;;;;;;;;2.00;0.00;;;;;;;;5113044;28;8869;-72
2023/03/14 03:32:39;;;;;;;;;0.00;0.00;;;;;;;;5111289;28;8825;-72
2023/03/14 03:35:05;;;;;;;;;0.00;0.00;;;;;;;;5113355;28;8784;-72
2023/03/14 03:37:31;;;;;;;;;0.00;0.00;;;;;;;;5112722;27;8793;-72
2023/03/14 03:39:56;;;;;;;;;0.00;0.00;;;;;;;;5112917;27;8791;-72
2023/03/14 03:42:21;;;;;;;;;0.00;0.00;;;;;;;;5111545;27;9481;-72
2023/03/14 03:44:47;;;;;;;;;0.00;0.00;;;;;;;;5112876;28;8808;-72
2023/03/14 03:47:12;;;;;;;;;0.00;0.00;;;;;;;;5111600;28;8886;-73
2023/03/14 03:49:37;;;;;;;;;0.00;0.00;;;;;;;;5112636;27;8823;-72
2023/03/14 03:52:02;;;;;;;;;0.00;0.00;;;;;;;;5112921;28;8804;-72
2023/03/14 03:54:28;;;;;;;;;0.00;0.00;;;;;;;;5112645;28;8815;-72
2023/03/14 03:56:54;;;;;;;;;0.00;0.00;;;;;;;;5112757;27;8780;-73
2023/03/14 03:59:19;;;;;;;;;0.00;0.00;;;;;;;;5112668;27;8793;-73
2023/03/14 04:01:44;;;;;;;;;0.00;0.00;;;;;;;;5112794;28;8800;-72
2023/03/14 04:04:09;;;;;;;;;0.00;0.00;;;;;;;;5112246;28;8805;-73
2023/03/14 04:06:34;;;;;;;;;0.00;0.00;;;;;;;;5112564;28;8873;-72
2023/03/14 04:09:00;;;;;;;;;0.00;0.00;;;;;;;;5111831;28;8797;-72
2023/03/14 04:11:25;;;;;;;;;0.00;0.00;;;;;;;;5112583;27;8801;-72
2023/03/14 04:13:50;;;;;;;;;0.00;0.00;;;;;;;;5111381;28;8897;-72
2023/03/14 04:16:23;;;;;;;;;0.00;0.00;;;;;;;;5111312;28;8862;-72
2023/03/14 04:18:49;;;;;;;;;1.00;0.00;;;;;;;;5111823;27;8835;-72
2023/03/14 04:21:14;;;;;;;;;0.00;0.00;;;;;;;;5112161;27;9424;-72
2023/03/14 04:23:40;;;;;;;;;1.00;0.00;;;;;;;;5112080;27;8813;-72
2023/03/14 04:26:05;;;;;;;;;0.00;0.00;;;;;;;;5111948;27;8898;-72
2023/03/14 04:28:31;;;;;;;;;0.00;0.00;;;;;;;;5112435;27;8812;-72
2023/03/14 04:30:56;;;;;;;;;0.00;0.00;;;;;;;;5112277;28;8796;-72
2023/03/14 04:33:21;;;;;;;;;0.00;0.00;;;;;;;;5111834;28;8793;-72
2023/03/14 04:35:47;;;;;;;;;0.00;0.00;;;;;;;;5112050;28;8797;-73
2023/03/14 04:38:12;;;;;;;;;0.00;0.00;;;;;;;;5112244;27;8777;-73
2023/03/14 04:40:39;;;;;;;;;0.00;0.00;;;;;;;;5111908;27;8813;-73
2023/03/14 04:43:04;;;;;;;;;0.00;0.00;;;;;;;;5110502;27;9548;-73
2023/03/14 04:45:29;;;;;;;;;0.00;0.00;;;;;;;;5110604;28;9616;-73
2023/03/14 04:47:54;;;;;;;;;0.00;0.00;;;;;;;;5110451;28;9559;-73
2023/03/14 04:50:20;;;;;;;;;0.00;0.00;;;;;;;;5112034;28;8793;-74
2023/03/14 04:52:45;;;;;;;;;3.00;0.00;;;;;;;;5111618;28;9447;-73
2023/03/14 04:55:10;;;;;;;;;1.33;0.67;;;;;;;;5111748;28;9553;-73
2023/03/14 04:57:35;;;;;;;;;2.00;0.00;;;;;;;;5111856;28;9571;-73
2023/03/14 05:00:01;;;;;;;;;1.00;1.00;;;;;;;;5111509;28;8808;-73
2023/03/14 05:02:26;;;;;;;;;3.33;0.67;;;;;;;;5110187;28;8811;-72
2023/03/14 05:04:51;;;;;;;;;1.00;1.00;;;;;;;;5111665;28;8776;-73
2023/03/14 05:07:16;;;;;;;;;2.50;1.00;;;;;;;;5109992;28;8857;-73
2023/03/14 05:09:42;;;;;;;;;1.75;1.75;;;;;;;;5111307;28;8817;-72
2023/03/14 05:12:08;;;;;;;;;1.75;1.25;;;;;;;;5110316;28;8792;-72
2023/03/14 05:14:33;;;;;;;;;0.75;0.75;;;;;;;;5109477;28;9611;-72
2023/03/14 05:16:58;;;;;;;;;2.00;1.00;;;;;;;;5111013;28;9619;-73
2023/03/14 05:19:23;;;;;;;;;0.00;0.00;;;;;;;;5111303;28;8812;-72
2023/03/14 05:21:49;;;;;;;;;2.00;1.25;;;;;;;;5114038;27;8800;-73
2023/03/14 05:24:14;;;;;;;;;0.75;0.75;;;;;;;;5115048;28;8816;-72
2023/03/14 05:26:39;;;;;;;;;3.00;1.75;;;;;;;;5115049;28;8796;-72
2023/03/14 05:29:04;;;;;;;;;3.25;2.00;;;;;;;;5115132;28;8812;-71
2023/03/14 05:31:29;;;;;;;;;1.00;1.00;;;;;;;;5114721;28;8901;-71
2023/03/14 05:33:55;;;;;;;;;1.00;1.00;;;;;;;;5113791;28;8805;-72
2023/03/14 05:36:20;;;;;;;;;1.00;1.00;;;;;;;;5113896;28;8880;-72
2023/03/14 05:38:46;;;;;;;;;4.00;1.75;;;;;;;;5114725;28;8981;-72
2023/03/14 05:41:11;;;;;;;;;3.00;3.00;;;;;;;;5114814;27;8781;-72
2023/03/14 05:43:36;;;;;;;;;1.75;1.75;;;;;;;;5114413;27;8804;-71
2023/03/14 05:46:01;;;;;;;;;2.00;2.00;;;;;;;;5114147;28;8942;-70
2023/03/14 05:48:27;;;;;;;;;2.75;2.75;;;;;;;;5114430;28;8836;-71
2023/03/14 05:50:56;;;;;;;;;1.25;1.25;;;;;;;;5114499;28;8839;-72
2023/03/14 05:53:21;;;;;;;;;1.75;1.75;;;;;;;;5114729;27;8772;-73
2023/03/14 05:55:46;;;;;;;;;5.25;3.00;;;;;;;;5114180;27;10121;-72
2023/03/14 05:58:12;;;;;;;;;4.75;3.50;;;;;;;;5112780;28;8808;-72
2023/03/14 06:00:37;;;;;;;;;2.00;0.00;;;;;;;;5113952;28;8808;-71
2023/03/14 06:03:02;;;;;;;;;3.00;1.75;;;;;;;;5114527;28;8819;-70
2023/03/14 06:05:27;;;;;;;;;2.50;1.50;;;;;;;;5113261;28;8889;-70
2023/03/14 06:07:53;;;;;;;;;1.00;0.00;;;;;;;;5114057;28;8816;-70
2023/03/14 06:10:18;;;;;;;;;4.50;3.50;;;;;;;;5114249;28;8789;-71
2023/03/14 06:12:43;;;;;;;;;2.00;2.00;;;;;;;;5113803;28;8883;-70
2023/03/14 06:15:08;;;;;;;;;1.00;1.00;;;;;;;;5113621;28;8797;-71
2023/03/14 06:17:34;;;;;;;;;3.50;2.25;;;;;;;;5114126;27;8862;-70
2023/03/14 06:19:59;;;;;;;;;2.00;2.00;;;;;;;;5113887;27;8781;-70
2023/03/14 06:22:24;;;;;;;;;5.50;3.00;;;;;;;;5113731;28;8808;-71
2023/03/14 06:24:49;;;;;;;;;1.00;1.00;;;;;;;;5113901;28;8815;-71
2023/03/14 06:27:15;;;;;;;;;5.00;2.25;;;;;;;;5103497;28;8819;-71
2023/03/14 06:29:40;;;;;;;;;1.50;1.00;;;;;;;;5093201;28;8819;-71
2023/03/14 06:32:05;;;;;;;;;3.50;2.50;;;;;;;;5092462;28;8840;-73
2023/03/14 06:34:31;;;;;;;;;4.50;2.00;;;;;;;;5093549;28;8787;-71
2023/03/14 06:36:56;;;;;;;;;2.25;2.25;;;;;;;;5095668;28;8884;-71
2023/03/14 06:39:21;;;;;;;;;2.00;1.75;;;;;;;;5092035;28;9569;-71
2023/03/14 06:41:46;;;;;;;;;3.50;2.00;;;;;;;;5099100;28;8816;-70
2023/03/14 06:44:11;;;;;;;;;3.25;2.00;;;;;;;;5113533;28;8810;-70
2023/03/14 06:46:37;;;;;;;;;2.50;2.50;;;;;;;;5113311;28;8801;-71
2023/03/14 06:49:02;;;;;;;;;3.00;2.25;;;;;;;;5104367;28;9697;-72
2023/03/14 06:51:28;;;;;;;;;2.25;1.25;;;;;;;;5104614;27;8799;-71
2023/03/14 06:53:53;;;;;;;;;5.00;5.00;;;;;;;;5101458;27;8775;-71
2023/03/14 06:56:18;;;;;;;;;3.00;1.00;;;;;;;;5100145;28;8784;-72
2023/03/14 06:58:44;;;;;;;;;3.50;2.00;;;;;;;;5092834;28;8803;-72
2023/03/14 07:01:29;;;;;;;;;9.00;2.00;;;;;;;;5093185;28;8781;-71
2023/03/14 07:03:54;;;;;;;;;4.75;3.75;;;;;;;;5091958;28;10142;-72
2023/03/14 07:06:20;;;;;;;;;1.00;1.00;;;;;;;;5092899;28;10034;-71
2023/03/14 07:08:45;;;;;;;;;2.00;2.00;;;;;;;;5091289;28;8815;-72
2023/03/14 07:11:11;;;;;;;;;2.00;2.00;;;;;;;;5092843;28;8788;-72
2023/03/14 07:13:37;;;;;;;;;4.00;2.00;;;;;;;;5092633;28;8780;-72
2023/03/14 07:16:02;;;;;;;;;2.50;1.00;;;;;;;;5092672;28;8914;-72
2023/03/14 07:18:27;;;;;;;;;2.50;1.00;;;;;;;;5092719;28;9562;-72
2023/03/14 07:20:52;;;;;;;;;2.75;1.50;;;;;;;;5092271;28;8896;-72
2023/03/14 07:23:18;;;;;;;;;0.25;0.25;;;;;;;;5092418;28;8792;-71
2023/03/14 07:25:43;;;;;;;;;5.25;1.00;;;;;;;;5092731;28;8779;-71
2023/03/14 07:28:08;;;;;;;;;3.75;1.75;;;;;;;;5092178;28;8818;-72
2023/03/14 07:30:33;;;;;;;;;2.00;1.75;;;;;;;;5092504;28;8792;-72
2023/03/14 07:32:58;;;;;;;;;2.25;1.50;;;;;;;;5092370;28;8892;-73
2023/03/14 07:35:24;;;;;;;;;2.75;2.00;;;;;;;;5092299;28;8783;-71
2023/03/14 07:37:49;;;;;;;;;1.75;1.75;;;;;;;;5114185;27;8806;-71
2023/03/14 07:40:14;;;;;;;;;1.00;0.00;;;;;;;;5111192;27;8866;-72
2023/03/14 07:42:40;;;;;;;;;3.50;0.75;;;;;;;;5111751;27;8782;-71
2023/03/14 07:45:06;;;;;;;;;4.00;3.00;;;;;;;;5128490;27;8895;-72
2023/03/14 07:47:31;;;;;;;;;2.25;2.00;;;;;;;;5130438;27;8798;-71
2023/03/14 07:49:56;;;;;;;;;1.00;1.00;;;;;;;;5131055;27;8810;-71
2023/03/14 07:52:21;;;;;;;;;1.75;0.50;;;;;;;;5132790;27;9614;-71
2023/03/14 07:54:46;;;;;;;;;2.50;2.25;;;;;;;;5132862;27;8828;-72
2023/03/14 07:57:12;;;;;;;;;4.00;1.75;;;;;;;;5132595;27;8778;-71
2023/03/14 07:59:37;;;;;;;;;1.00;1.00;;;;;;;;5133004;27;9631;-71
2023/03/14 08:02:05;;;;;;;;;2.00;2.00;;;;;;;;5132625;27;8782;-71
2023/03/14 08:04:31;;;;;;;;;1.75;0.75;;;;;;;;5131183;27;8828;-70
2023/03/14 08:06:56;;;;;;;;;2.00;1.25;;;;;;;;5133060;27;9852;-70
2023/03/14 08:09:21;;;;;;;;;0.25;0.00;;;;;;;;5131382;27;9259;-70
2023/03/14 08:11:46;;;;;;;;;0.00;0.00;;;;;;;;5132619;27;8798;-70
2023/03/14 08:14:12;;;;;;;;;1.00;1.00;;;;;;;;5132795;27;8793;-71
2023/03/14 08:16:37;;;;;;;;;2.00;2.00;;;;;;;;5132441;27;8786;-71
2023/03/14 08:19:02;;;;;;;;;2.00;0.75;;;;;;;;5132884;27;8798;-71
2023/03/14 08:21:27;;;;;;;;;1.00;1.00;;;;;;;;5132645;27;8771;-70
2023/03/14 08:23:52;;;;;;;;;2.75;2.25;;;;;;;;5099430;27;8845;-71
2023/03/14 08:26:18;;;;;;;;;3.25;1.00;;;;;;;;5091244;28;8787;-70
2023/03/14 08:28:43;;;;;;;;;0.75;0.00;;;;;;;;5091340;28;8827;-70
2023/03/14 08:31:08;;;;;;;;;1.50;1.50;;;;;;;;5091239;28;8806;-71
2023/03/14 08:33:33;;;;;;;;;2.00;2.00;;;;;;;;5091455;28;8803;-71
2023/03/14 08:35:59;;;;;;;;;1.00;1.00;;;;;;;;5091234;28;8877;-72
2023/03/14 08:38:25;;;;;;;;;2.00;2.00;;;;;;;;5091307;28;8906;-72
2023/03/14 08:41:00;;;;;;;;;2.00;1.00;;;;;;;;5090813;28;10557;-72
2023/03/14 08:43:26;;;;;;;;;2.00;0.75;;;;;;;;5110874;27;8780;-71
2023/03/14 08:45:51;;;;;;;;;2.00;2.00;;;;;;;;5111446;27;9711;-71
2023/03/14 08:48:16;;;;;;;;;3.50;2.00;;;;;;;;5111572;28;8827;-71
2023/03/14 08:50:42;;;;;;;;;3.75;1.75;;;;;;;;5111298;28;8792;-71
2023/03/14 08:53:07;;;;;;;;;2.00;2.00;;;;;;;;5110099;28;8813;-71
2023/03/14 08:55:32;;;;;;;;;2.25;1.00;;;;;;;;5111160;28;8927;-71
2023/03/14 08:57:57;;;;;;;;;1.50;1.50;;;;;;;;5111534;28;8809;-71
2023/03/14 09:00:23;;;;;;;;;1.00;1.00;;;;;;;;5111746;28;8785;-71
2023/03/14 09:02:48;;;;;;;;;1.00;1.00;;;;;;;;5111571;28;8792;-71
2023/03/14 09:05:13;;;;;;;;;4.50;0.25;;;;;;;;5111642;28;8785;-71
2023/03/14 09:07:39;;;;;;;;;3.00;1.00;;;;;;;;5110094;28;8934;-70
2023/03/14 09:10:04;;;;;;;;;3.50;1.25;;;;;;;;5111249;27;8820;-70
2023/03/14 09:12:30;;;;;;;;;2.00;1.25;;;;;;;;5111618;27;9559;-70
2023/03/14 09:14:55;;;;;;;;;1.25;1.00;;;;;;;;5111623;27;8804;-71
2023/03/14 09:17:21;;;;;;;;;1.00;1.00;;;;;;;;5111272;28;8777;-71
2023/03/14 09:19:46;;;;;;;;;1.75;0.25;;;;;;;;5109988;28;8812;-70
2023/03/14 09:22:11;;;;;;;;;1.00;1.00;;;;;;;;5096140;28;9570;-71
2023/03/14 09:24:36;;;;;;;;;0.50;0.25;;;;;;;;5090588;28;8779;-71
2023/03/14 09:27:02;;;;;;;;;0.25;0.00;;;;;;;;5090918;28;8887;-70
2023/03/14 09:29:27;;;;;;;;;1.00;0.00;;;;;;;;5090516;28;8818;-71
2023/03/14 09:31:52;;;;;;;;;1.25;0.75;;;;;;;;5090763;28;8807;-70
2023/03/14 09:34:18;;;;;;;;;1.75;0.00;;;;;;;;5091070;28;8834;-72
2023/03/14 09:36:44;;;;;;;;;0.00;0.00;;;;;;;;5090321;28;9693;-71
2023/03/14 09:39:09;;;;;;;;;2.00;0.00;;;;;;;;5090617;28;9748;-72
2023/03/14 09:41:36;;;;;;;;;1.00;1.00;;;;;;;;5095026;27;8825;-71
2023/03/14 09:44:04;;;;;;;;;1.00;0.00;;;;;;;;5110941;27;8791;-72
2023/03/14 09:46:31;;;;;;;;;1.00;0.00;;;;;;;;5111025;27;10537;-71
2023/03/14 09:48:56;;;;;;;;;1.00;0.00;;;;;;;;5111238;27;9720;-71
2023/03/14 09:51:23;;;;;;;;;0.00;0.00;;;;;;;;5110997;28;9557;-71
2023/03/14 09:53:49;;;;;;;;;0.25;0.25;;;;;;;;5110607;28;8773;-70
2023/03/14 09:56:19;;;;;;;;;0.00;0.00;;;;;;;;5110927;27;9525;-70
2023/03/14 09:58:48;;;;;;;;;0.00;0.00;;;;;;;;5110410;27;11364;-72
2023/03/14 10:01:15;;;;;;;;;0.00;0.00;;;;;;;;5110490;27;9602;-72
2023/03/14 10:03:42;;;;;;;;;0.00;0.00;;;;;;;;5110788;27;9589;-71
2023/03/14 10:06:14;;;;;;;;;0.50;0.00;;;;;;;;5110313;27;10553;-72
2023/03/14 10:08:43;;;;;;;;;1.00;0.50;;;;;;;;5113597;27;10910;-72
2023/03/14 10:11:16;;;;;;;;;1.00;0.00;;;;;;;;5114462;27;9876;-72
2023/03/14 10:14:01;;;;;;;;;1.00;1.00;;;;;;;;5114058;27;9865;-72
2023/03/14 10:16:31;;;;;;;;;1.50;0.75;;;;;;;;5114037;27;9703;-72
2023/03/14 10:19:01;;;;;;;;;0.25;0.00;;;;;;;;5114563;27;9532;-72
2023/03/14 10:21:28;;;;;;;;;0.00;0.00;;;;;;;;5114006;27;9608;-72
2023/03/14 10:23:54;;;;;;;;;1.00;0.00;;;;;;;;5114119;27;9608;-72
2023/03/14 10:26:29;;;;;;;;;0.00;0.00;;;;;;;;5113983;28;9627;-72
2023/03/14 10:29:01;;;;;;;;;0.50;0.50;;;;;;;;5114010;27;8796;-72
2023/03/14 10:31:27;;;;;;;;;0.00;0.00;;;;;;;;5114054;27;9693;-72
2023/03/14 10:34:03;;;;;;;;;0.25;0.25;;;;;;;;5114033;27;9541;-72
2023/03/14 10:36:32;;;;;;;;;0.00;0.00;;;;;;;;5113858;27;8803;-72
2023/03/14 10:39:16;;;;;;;;;1.00;1.00;;;;;;;;5113744;27;9621;-73
2023/03/14 10:41:46;;;;;;;;;1.00;1.00;;;;;;;;5113917;27;9394;-73
2023/03/14 10:44:12;;;;;;;;;0.00;0.00;;;;;;;;5112461;28;9483;-72
2023/03/14 10:46:37;;;;;;;;;0.33;0.00;;;;;;;;5113533;27;9447;-72
2023/03/14 10:49:06;;;;;;;;;1.00;0.00;;;;;;;;5113802;27;9434;-72
2023/03/14 10:51:31;;;;;;;;;1.67;0.00;;;;;;;;5113882;27;8756;-72
2023/03/14 10:54:13;;;;;;;;;0.25;0.25;;;;;;;;5113389;28;9446;-72
2023/03/14 10:56:38;;;;;;;;;1.33;0.33;;;;;;;;5113661;27;8753;-72
2023/03/14 10:59:07;;;;;;;;;0.00;0.00;;;;;;;;5113838;28;9369;-72
2023/03/14 11:01:38;;;;;;;;;0.00;0.00;;;;;;;;5113961;27;8757;-71
2023/03/14 11:04:03;;;;;;;;;1.00;0.00;;;;;;;;5112729;28;9413;-72
2023/03/14 11:06:35;;;;;;;;;3.00;0.00;;;;;;;;5112484;28;9422;-72
2023/03/14 11:09:05;;;;;;;;;0.00;0.00;;;;;;;;5112833;27;8793;-72
2023/03/14 11:11:30;;;;;;;;;1.75;1.00;;;;;;;;5113351;27;9486;-72
2023/03/14 11:14:07;;;;;;;;;0.00;0.00;;;;;;;;5112203;27;9639;-73
2023/03/14 11:16:38;;;;;;;;;1.00;1.00;;;;;;;;5112897;27;8781;-72
2023/03/14 11:19:04;;;;;;;;;1.75;0.00;;;;;;;;5111668;27;9539;-72
2023/03/14 11:21:35;;;;;;;;;0.00;0.00;;;;;;;;5110947;28;9637;-72
2023/03/14 11:24:00;;;;;;;;;0.00;0.00;;;;;;;;5100177;28;9018;-72
2023/03/14 11:26:40;;;;;;;;;1.00;1.00;;;;;;;;5101154;28;9576;-72
2023/03/14 11:29:24;;;;;;;;;1.00;0.00;;;;;;;;5101444;27;8800;-73
2023/03/14 11:31:49;;;;;;;;;0.00;0.00;;;;;;;;5103274;28;9409;-73
2023/03/14 11:34:14;;;;;;;;;1.33;0.00;;;;;;;;5101534;28;9487;-72
2023/03/14 11:36:44;;;;;;;;;1.50;1.50;;;;;;;;5102109;28;8789;-71
2023/03/14 11:39:16;;;;;;;;;3.33;0.67;;;;;;;;5103297;28;8780;-71
2023/03/14 11:41:56;;;;;;;;;0.00;0.00;;;;;;;;5102812;27;9527;-72
2023/03/14 11:44:25;;;;;;;;;0.50;0.00;;;;;;;;5110812;28;9459;-71
2023/03/14 11:46:56;;;;;;;;;0.00;0.00;;;;;;;;5111638;28;9455;-73
2023/03/14 11:49:34;;;;;;;;;0.67;0.00;;;;;;;;5112737;28;9648;-72
2023/03/14 11:52:02;;;;;;;;;2.00;1.00;;;;;;;;5112424;27;9390;-73
2023/03/14 11:54:42;;;;;;;;;0.00;0.00;;;;;;;;5110396;27;9659;-72
2023/03/14 11:57:15;;;;;;;;;0.00;0.00;;;;;;;;5110944;27;9449;-71
2023/03/14 11:59:43;;;;;;;;;0.00;0.00;;;;;;;;5109878;28;10470;-71
2023/03/14 12:02:21;;;;;;;;;0.00;0.00;;;;;;;;5110976;28;9609;-71
2023/03/14 12:04:51;;;;;;;;;0.00;0.00;;;;;;;;5106915;27;9475;-70
2023/03/14 12:07:19;;;;;;;;;0.00;0.00;;;;;;;;5101102;28;9564;-71
2023/03/14 12:09:45;;;;;;;;;0.00;0.00;;;;;;;;5092822;27;9584;-72
2023/03/14 12:12:13;;;;;;;;;1.00;0.00;;;;;;;;5089069;28;9677;-75
2023/03/14 12:14:45;;;;;;;;;0.00;0.00;;;;;;;;5091014;28;9554;-73
2023/03/14 12:17:24;;;;;;;;;0.00;0.00;;;;;;;;5090475;28;9538;-74
2023/03/14 12:20:22;;;;;;;;;0.00;0.00;;;;;;;;5090141;28;9391;-72
2023/03/14 12:22:52;;;;;;;;;0.00;0.00;;;;;;;;5014165;28;9590;-73
2023/03/14 12:25:19;;;;;;;;;0.00;0.00;;;;;;;;5027773;28;9324;-72
2023/03/14 12:27:53;;;;;;;;;0.00;0.00;;;;;;;;5027384;28;9348;-71
2023/03/14 12:30:38;;;;;;;;;0.00;0.00;;;;;;;;5027631;28;9402;-70
2023/03/14 12:33:09;;;;;;;;;1.00;0.00;;;;;;;;5026777;28;9497;-75
2023/03/14 12:35:40;;;;;;;;;0.00;0.00;;;;;;;;5028114;28;9403;-72
2023/03/14 12:38:16;;;;;;;;;3.67;1.00;;;;;;;;5027706;28;9431;-71
2023/03/14 12:40:56;;;;;;;;;1.00;1.00;;;;;;;;5027706;28;9397;-72
2023/03/14 12:43:25;;;;;;;;;0.00;0.00;;;;;;;;5027187;28;9347;-71
2023/03/14 12:46:05;;;;;;;;;0.00;0.00;;;;;;;;5010184;28;9579;-70
2023/03/14 12:48:32;;;;;;;;;0.00;0.00;;;;;;;;5027929;28;9506;-70
2023/03/14 12:51:12;;;;;;;;;0.00;0.00;;;;;;;;5028687;28;9571;-72
2023/03/14 12:54:06;;;;;;;;;0.00;0.00;;;;;;;;5028949;28;9418;-71
2023/03/14 12:56:37;;;;;;;;;0.00;0.00;;;;;;;;5028691;28;9392;-72
2023/03/14 12:59:02;;;;;;;;;0.00;0.00;;;;;;;;5076725;28;9414;-72
2023/03/14 13:01:28;;;;;;;;;0.67;0.00;;;;;;;;5091273;28;9647;-72
2023/03/14 13:03:57;;;;;;;;;0.00;0.00;;;;;;;;5091353;28;8807;-72
2023/03/14 13:06:41;;;;;;;;;0.00;0.00;;;;;;;;5091170;28;8800;-72
2023/03/14 13:09:25;;;;;;;;;2.00;1.00;;;;;;;;5091218;28;9411;-71
2023/03/14 13:11:50;;;;;;;;;1.00;1.00;;;;;;;;5090860;28;9921;-72
2023/03/14 13:14:15;;;;;;;;;2.00;1.00;;;;;;;;5091022;28;9621;-71
2023/03/14 13:16:43;;;;;;;;;2.75;0.50;;;;;;;;5090684;28;9601;-72
2023/03/14 13:19:17;;;;;;;;;1.00;1.00;;;;;;;;5090752;28;8858;-71
2023/03/14 13:21:42;;;;;;;;;5.25;2.00;;;;;;;;5091028;28;10457;-70
2023/03/14 13:24:20;;;;;;;;;1.75;1.00;;;;;;;;5090626;28;9682;-72
2023/03/14 13:26:46;;;;;;;;;1.00;1.00;;;;;;;;5090598;28;8802;-72
2023/03/14 13:29:20;;;;;;;;;2.00;1.00;;;;;;;;5089252;28;9581;-75
2023/03/14 13:31:46;;;;;;;;;3.00;2.00;;;;;;;;5090748;28;9577;-75
2023/03/14 13:34:12;;;;;;;;;4.00;2.00;;;;;;;;5091208;28;9693;-76
2023/03/14 13:36:37;;;;;;;;;3.00;3.00;;;;;;;;5091114;28;9808;-74
2023/03/14 13:39:06;;;;;;;;;1.00;1.00;;;;;;;;5091058;28;8807;-75
2023/03/14 13:41:31;;;;;;;;;0.00;0.00;;;;;;;;5095086;28;8777;-77
2023/03/14 13:44:00;;;;;;;;;0.00;0.00;;;;;;;;5114897;27;9705;-74
2023/03/14 13:46:26;;;;;;;;;0.00;0.00;;;;;;;;5113370;28;9579;-75
2023/03/14 13:49:01;;;;;;;;;1.75;0.00;;;;;;;;5114744;28;10282;-76
2023/03/14 13:51:31;;;;;;;;;0.00;0.00;;;;;;;;5114642;27;8761;-76
2023/03/14 13:53:57;;;;;;;;;2.50;0.00;;;;;;;;5114708;27;9757;-73
2023/03/14 13:56:25;;;;;;;;;0.00;0.00;;;;;;;;5114755;27;9600;-75
2023/03/14 13:58:50;;;;;;;;;0.00;0.00;;;;;;;;5114214;27;10287;-74
2023/03/14 14:01:20;;;;;;;;;1.00;1.00;;;;;;;;5114488;27;9620;-73
2023/03/14 14:03:50;;;;;;;;;0.00;0.00;;;;;;;;5114592;27;8788;-73
2023/03/14 14:06:18;;;;;;;;;2.00;0.00;;;;;;;;5114433;27;9684;-73
2023/03/14 14:08:44;;;;;;;;;0.00;0.00;;;;;;;;5114158;28;9819;-73
2023/03/14 14:11:11;;;;;;;;;2.00;1.00;;;;;;;;5114397;27;9475;-74
2023/03/14 14:13:36;;;;;;;;;1.50;0.00;;;;;;;;5095811;28;8789;-73
2023/03/14 14:16:03;;;;;;;;;0.00;0.00;;;;;;;;5113991;27;9806;-73
2023/03/14 14:18:30;;;;;;;;;0.25;0.25;;;;;;;;5113870;27;8765;-73
2023/03/14 14:20:56;;;;;;;;;0.75;0.00;;;;;;;;5114129;27;9824;-73
2023/03/14 14:23:31;;;;;;;;;0.00;0.00;;;;;;;;5113470;27;9706;-73
2023/03/14 14:25:57;;;;;;;;;1.00;0.00;;;;;;;;5113799;27;8807;-73
2023/03/14 14:28:27;;;;;;;;;0.00;0.00;;;;;;;;5113329;27;10684;-72
2023/03/14 14:31:19;;;;;;;;;1.00;1.00;;;;;;;;5114030;27;9784;-73
2023/03/14 14:33:50;;;;;;;;;0.00;0.00;;;;;;;;5110410;27;9799;-74
2023/03/14 14:36:23;;;;;;;;;0.00;0.00;;;;;;;;5113872;28;9739;-74
2023/03/14 14:38:49;;;;;;;;;0.00;0.00;;;;;;;;5113253;27;9808;-73
2023/03/14 14:41:15;;;;;;;;;1.00;0.00;;;;;;;;5111688;27;9620;-72
2023/03/14 14:43:40;;;;;;;;;0.00;0.00;;;;;;;;5113342;28;9647;-73
2023/03/14 14:46:07;;;;;;;;;0.00;0.00;;;;;;;;5111905;27;8851;-73
2023/03/14 14:48:36;;;;;;;;;0.50;0.50;;;;;;;;5111983;27;8796;-72
2023/03/14 14:51:02;;;;;;;;;0.00;0.00;;;;;;;;5112490;27;9861;-74
2023/03/14 14:53:29;;;;;;;;;0.00;0.00;;;;;;;;5112219;28;9543;-73
2023/03/14 14:55:56;;;;;;;;;0.00;0.00;;;;;;;;5113292;27;9696;-72
2023/03/14 14:58:21;;;;;;;;;0.00;0.00;;;;;;;;5113152;27;9804;-72
2023/03/14 15:00:55;;;;;;;;;0.00;0.00;;;;;;;;5113278;28;10588;-71
2023/03/14 15:03:20;;;;;;;;;1.00;0.00;;;;;;;;5113047;27;8772;-71
2023/03/14 15:05:45;;;;;;;;;0.00;0.00;;;;;;;;5111693;28;9618;-73